Time;durP1;ratioP1;P1;durP2;ratioP2;P2;SDS_P1;SDS_P2;PMS_P1;PMS_P2;Temp;Humidity;BMP_temperature;BMP_pressure;BME280_temperature;BME280_humidity;BME280_pressure;Samples;Min_cycle;Max_cycle;Signal;HPM_P1;HPM_P2
2021/03/19 00:01:04;;;;;;;19.43;12.67;;;5.50;99.90;;;;;;5018323;28;20837;-74
2021/03/19 00:03:29;;;;;;;17.97;13.10;;;5.40;99.90;;;;;;5032358;28;20183;-74
2021/03/19 00:05:55;;;;;;;16.43;13.30;;;5.40;99.90;;;;;;5034813;28;20187;-74
2021/03/19 00:08:21;;;;;;;17.80;13.67;;;5.40;99.90;;;;;;5034725;28;20195;-74
2021/03/19 00:10:46;;;;;;;19.93;13.23;;;5.30;99.90;;;;;;5034669;28;20180;-74
2021/03/19 00:13:12;;;;;;;16.73;13.50;;;5.40;99.90;;;;;;5034699;28;20245;-74
2021/03/19 00:15:38;;;;;;;14.07;12.20;;;5.40;99.90;;;;;;5034708;28;20195;-75
2021/03/19 00:18:06;;;;;;;15.83;12.43;;;5.40;99.90;;;;;;5033951;28;20199;-74
2021/03/19 00:20:43;;;;;;;15.07;12.67;;;5.30;99.90;;;;;;5034273;28;20424;-74
2021/03/19 00:23:09;;;;;;;21.77;14.20;;;5.10;99.90;;;;;;5034288;28;20973;-75
2021/03/19 00:25:36;;;;;;;18.60;11.53;;;5.10;99.90;;;;;;5033309;28;20479;-74
2021/03/19 00:28:03;;;;;;;18.20;12.73;;;5.10;99.90;;;;;;5034136;28;20441;-75
2021/03/19 00:30:29;;;;;;;18.80;14.90;;;5.10;99.90;;;;;;5033906;28;20941;-75
2021/03/19 00:32:55;;;;;;;17.20;13.20;;;5.00;99.90;;;;;;5033297;28;20462;-75
2021/03/19 00:35:20;;;;;;;18.30;13.70;;;4.90;99.90;;;;;;5023823;28;20421;-75
2021/03/19 00:37:46;;;;;;;17.23;14.60;;;4.90;99.90;;;;;;5034237;28;20199;-75
2021/03/19 00:40:14;;;;;;;15.07;13.03;;;4.80;99.90;;;;;;5033349;28;20190;-74
2021/03/19 00:42:40;;;;;;;19.97;14.13;;;4.70;99.90;;;;;;5033241;28;20632;-75
2021/03/19 00:45:09;;;;;;;17.93;13.53;;;4.80;99.90;;;;;;5033373;28;20410;-75
2021/03/19 00:47:34;;;;;;;17.03;13.47;;;4.80;99.90;;;;;;5033959;28;20453;-74
2021/03/19 00:50:00;;;;;;;22.00;13.60;;;4.80;99.90;;;;;;5032253;28;20430;-74
2021/03/19 00:52:26;;;;;;;17.00;13.67;;;4.80;99.90;;;;;;5032612;28;20285;-75
2021/03/19 00:54:52;;;;;;;18.73;15.10;;;4.70;99.90;;;;;;5033414;28;20866;-74
2021/03/19 00:57:17;;;;;;;17.83;14.40;;;4.90;99.90;;;;;;5032604;28;20445;-74
2021/03/19 00:59:43;;;;;;;18.70;13.80;;;4.80;99.90;;;;;;5033822;28;20171;-74
2021/03/19 01:02:09;;;;;;;18.87;15.17;;;4.70;99.90;;;;;;5032131;28;20183;-74
2021/03/19 01:04:35;;;;;;;22.20;14.87;;;4.80;99.90;;;;;;5032026;28;20687;-75
2021/03/19 01:07:00;;;;;;;19.73;15.63;;;4.70;99.90;;;;;;5033320;28;20425;-74
2021/03/19 01:09:26;;;;;;;16.77;14.33;;;4.80;99.90;;;;;;5014444;28;20175;-74
2021/03/19 01:11:51;;;;;;;21.03;16.07;;;4.70;99.90;;;;;;5017507;28;20217;-74
2021/03/19 01:14:17;;;;;;;17.70;14.30;;;4.80;99.90;;;;;;5033509;28;20175;-74
2021/03/19 01:16:42;;;;;;;18.80;15.27;;;4.70;99.90;;;;;;5033324;28;20515;-74
2021/03/19 01:19:09;;;;;;;20.30;14.47;;;4.70;99.90;;;;;;5033135;28;20203;-74
2021/03/19 01:21:36;;;;;;;19.70;15.50;;;4.80;99.90;;;;;;5033248;28;20582;-74
2021/03/19 01:24:01;;;;;;;17.87;14.93;;;4.70;99.90;;;;;;5032441;28;20438;-74
2021/03/19 01:26:27;;;;;;;20.90;15.77;;;4.80;99.90;;;;;;5021200;28;20516;-74
2021/03/19 01:28:53;;;;;;;20.80;15.20;;;4.70;99.90;;;;;;5033479;28;20433;-74
2021/03/19 01:31:18;;;;;;;19.40;15.73;;;4.50;99.90;;;;;;5032194;28;20201;-74
2021/03/19 01:33:44;;;;;;;19.20;14.90;;;4.60;99.90;;;;;;5046776;28;20210;-74
2021/03/19 01:36:10;;;;;;;18.63;14.57;;;4.50;99.90;;;;;;5049388;28;20183;-74
2021/03/19 01:38:37;;;;;;;25.20;16.20;;;4.60;99.90;;;;;;5040920;28;20199;-75
2021/03/19 01:41:04;;;;;;;19.53;14.40;;;4.50;99.90;;;;;;5045730;28;20182;-75
2021/03/19 01:43:29;;;;;;;16.60;14.13;;;4.40;99.90;;;;;;5053570;28;20409;-75
2021/03/19 01:46:23;;;;;;;15.80;13.97;;;4.50;99.90;;;;;;5047648;28;20447;-75
2021/03/19 01:49:27;;;;;;;16.17;13.83;;;4.50;99.90;;;;;;5033155;28;20325;-75
2021/03/19 01:52:30;;;;;;;18.33;13.80;;;4.50;99.90;;;;;;5031791;28;20846;-75
2021/03/19 01:55:33;;;;;;;22.67;14.00;;;4.40;99.90;;;;;;5032886;28;20436;-74
2021/03/19 01:58:36;;;;;;;18.87;14.97;;;4.50;99.90;;;;;;5031784;28;21035;-74
2021/03/19 02:01:39;;;;;;;20.33;13.80;;;4.50;99.90;;;;;;5013622;28;20424;-74
2021/03/19 02:04:42;;;;;;;20.97;15.13;;;4.50;99.90;;;;;;5032712;28;20423;-75
2021/03/19 02:07:45;;;;;;;23.43;16.10;;;4.50;99.90;;;;;;5030510;28;20438;-74
2021/03/19 02:10:48;;;;;;;22.23;15.17;;;4.40;99.90;;;;;;5052954;28;20887;-75
2021/03/19 02:13:51;;;;;;;22.57;15.70;;;4.20;99.90;;;;;;5034071;28;20987;-74
2021/03/19 02:16:54;;;;;;;22.20;17.27;;;4.10;99.90;;;;;;5024009;28;20435;-75
2021/03/19 02:19:57;;;;;;;19.87;15.10;;;4.00;99.90;;;;;;5034685;28;20441;-75
2021/03/19 02:23:00;;;;;;;22.50;16.13;;;3.80;99.90;;;;;;5041140;28;20423;-74
2021/03/19 02:26:03;;;;;;;23.83;15.37;;;3.70;99.90;;;;;;5041352;28;20425;-74
2021/03/19 02:29:06;;;;;;;21.47;15.50;;;3.70;99.90;;;;;;5016664;28;20507;-75
2021/03/19 02:31:54;;;;;;;20.93;16.13;;;3.70;99.90;;;;;;5046031;28;20442;-74
2021/03/19 02:34:24;;;;;;;22.30;16.67;;;3.60;99.90;;;;;;5049536;28;20427;-75
2021/03/19 02:36:49;;;;;;;20.30;16.87;;;3.50;99.90;;;;;;5041132;28;20440;-75
2021/03/19 02:39:15;;;;;;;26.20;18.27;;;3.60;99.90;;;;;;5051253;28;20460;-74
2021/03/19 02:41:40;;;;;;;24.47;18.83;;;3.60;99.90;;;;;;5038546;28;20187;-74
2021/03/19 02:44:06;;;;;;;23.07;16.07;;;3.60;99.90;;;;;;5036141;28;20176;-75
2021/03/19 02:46:32;;;;;;;26.40;16.87;;;3.80;99.90;;;;;;5034532;28;20223;-74
2021/03/19 02:48:57;;;;;;;24.60;17.10;;;3.90;99.90;;;;;;5046118;28;20201;-75
2021/03/19 02:51:24;;;;;;;20.00;17.07;;;4.00;99.90;;;;;;5037103;28;20200;-74
2021/03/19 02:53:49;;;;;;;23.13;15.23;;;4.10;99.90;;;;;;5047433;28;20619;-75
2021/03/19 02:56:15;;;;;;;22.70;15.67;;;4.10;99.90;;;;;;5045057;28;20533;-75
2021/03/19 02:58:41;;;;;;;21.93;16.97;;;4.00;99.90;;;;;;5039010;28;20280;-74
2021/03/19 03:01:07;;;;;;;24.83;16.23;;;4.10;99.90;;;;;;5037201;28;20918;-75
2021/03/19 03:03:34;;;;;;;23.33;15.27;;;4.10;99.90;;;;;;5047423;28;20191;-75
2021/03/19 03:05:59;;;;;;;23.20;16.67;;;4.00;99.90;;;;;;5035418;28;20473;-75
2021/03/19 03:08:25;;;;;;;22.97;15.57;;;4.00;99.90;;;;;;5051363;28;20463;-74
2021/03/19 03:10:54;;;;;;;22.30;16.20;;;4.00;99.90;;;;;;5039801;28;20223;-75
2021/03/19 03:13:20;;;;;;;20.10;15.03;;;4.00;99.90;;;;;;5033658;28;20619;-76
2021/03/19 03:15:46;;;;;;;19.60;15.70;;;3.90;99.90;;;;;;5038841;28;20990;-75
2021/03/19 03:18:13;;;;;;;20.70;16.43;;;3.80;99.90;;;;;;5043802;28;20751;-75
2021/03/19 03:20:46;;;;;;;18.80;16.67;;;3.80;99.90;;;;;;5037962;28;20424;-75
2021/03/19 03:23:14;;;;;;;24.47;16.90;;;3.80;99.90;;;;;;5038519;28;20456;-75
2021/03/19 03:25:40;;;;;;;28.90;16.57;;;3.60;99.90;;;;;;5026545;28;20837;-77
2021/03/19 03:28:06;;;;;;;26.73;17.50;;;3.60;99.90;;;;;;5040989;28;20448;-76
2021/03/19 03:30:40;;;;;;;20.80;15.40;;;3.60;99.90;;;;;;5038448;28;20425;-76
2021/03/19 03:33:06;;;;;;;26.30;18.17;;;3.70;99.90;;;;;;5040035;28;20488;-76
2021/03/19 03:35:32;;;;;;;24.23;17.60;;;3.70;99.90;;;;;;5039975;28;20450;-76
2021/03/19 03:38:00;;;;;;;22.73;15.60;;;3.70;99.90;;;;;;5038907;28;20481;-76
2021/03/19 03:40:33;;;;;;;24.60;17.13;;;3.70;99.90;;;;;;5052132;28;20425;-76
2021/03/19 03:42:59;;;;;;;27.17;16.83;;;3.70;99.90;;;;;;5046136;28;20456;-76
2021/03/19 03:45:25;;;;;;;29.23;18.47;;;3.60;99.90;;;;;;5042542;28;20490;-76
2021/03/19 03:47:50;;;;;;;20.40;15.80;;;3.60;99.90;;;;;;5036857;28;20202;-77
2021/03/19 03:50:19;;;;;;;23.17;16.77;;;3.60;99.90;;;;;;5039133;28;20486;-76
2021/03/19 03:52:45;;;;;;;27.83;17.73;;;3.50;99.90;;;;;;5039842;28;20198;-75
2021/03/19 03:55:11;;;;;;;27.90;18.33;;;3.40;99.90;;;;;;5039939;28;20871;-76
2021/03/19 03:57:40;;;;;;;27.27;19.17;;;3.20;99.90;;;;;;5037966;28;20221;-74
2021/03/19 04:00:10;;;;;;;27.57;18.40;;;3.00;99.90;;;;;;5039232;28;20427;-75
2021/03/19 04:02:36;;;;;;;26.33;18.07;;;3.00;99.90;;;;;;5036267;28;20426;-75
2021/03/19 04:05:05;;;;;;;30.70;18.97;;;3.00;99.90;;;;;;5032883;28;20420;-75
2021/03/19 04:07:31;;;;;;;31.13;20.50;;;3.10;99.90;;;;;;5032291;28;20969;-74
2021/03/19 04:09:56;;;;;;;28.67;19.00;;;3.20;99.90;;;;;;5032570;28;20406;-74
2021/03/19 04:12:22;;;;;;;27.40;17.70;;;3.30;99.90;;;;;;5032468;28;20250;-75
2021/03/19 04:14:47;;;;;;;23.80;18.53;;;3.30;99.90;;;;;;5029196;28;20229;-75
2021/03/19 04:17:28;;;;;;;23.30;16.87;;;3.20;99.90;;;;;;5030723;28;20662;-74
2021/03/19 04:19:55;;;;;;;30.80;19.07;;;3.10;99.90;;;;;;5032182;28;20167;-75
2021/03/19 04:22:21;;;;;;;25.17;18.67;;;3.20;99.90;;;;;;5032782;28;20408;-75
2021/03/19 04:24:48;;;;;;;29.93;20.57;;;3.00;99.90;;;;;;5031964;28;20425;-75
2021/03/19 04:27:20;;;;;;;26.60;17.97;;;3.00;99.90;;;;;;5032565;28;20177;-75
2021/03/19 04:29:47;;;;;;;27.60;19.57;;;2.90;99.90;;;;;;5031907;28;20443;-75
2021/03/19 04:32:13;;;;;;;27.77;17.40;;;2.90;99.90;;;;;;5028648;28;20484;-75
2021/03/19 04:34:39;;;;;;;29.87;18.03;;;2.80;99.90;;;;;;5032167;28;20425;-75
2021/03/19 04:37:06;;;;;;;24.73;17.67;;;2.80;99.90;;;;;;5032522;28;20482;-75
2021/03/19 04:39:33;;;;;;;27.20;18.23;;;2.80;99.90;;;;;;5031872;28;20412;-74
2021/03/19 04:42:01;;;;;;;27.97;17.30;;;2.70;99.90;;;;;;5031778;28;20779;-74
2021/03/19 04:44:30;;;;;;;26.60;15.83;;;2.80;99.90;;;;;;5029943;28;20422;-75
2021/03/19 04:46:55;;;;;;;27.57;17.03;;;2.80;99.90;;;;;;5030159;28;20478;-75
2021/03/19 04:49:22;;;;;;;29.47;20.10;;;2.70;99.90;;;;;;5036043;28;20452;-76
2021/03/19 04:51:47;;;;;;;25.67;19.87;;;2.60;99.90;;;;;;5045953;28;20261;-76
2021/03/19 04:54:13;;;;;;;27.73;17.90;;;2.70;99.90;;;;;;5038857;28;20445;-76
2021/03/19 04:56:39;;;;;;;26.63;18.53;;;2.80;99.90;;;;;;5037073;28;20579;-76
2021/03/19 04:59:05;;;;;;;28.87;18.70;;;2.90;99.90;;;;;;5036895;28;20201;-75
2021/03/19 05:01:31;;;;;;;24.00;17.07;;;3.00;99.90;;;;;;5031617;28;20173;-74
2021/03/19 05:03:56;;;;;;;29.80;18.97;;;3.10;99.90;;;;;;5031221;28;20440;-74
2021/03/19 05:06:22;;;;;;;29.70;19.37;;;3.20;99.90;;;;;;5031027;28;20178;-75
2021/03/19 05:08:48;;;;;;;36.03;21.70;;;3.20;99.90;;;;;;5032279;28;20192;-75
2021/03/19 05:11:16;;;;;;;32.10;22.90;;;3.20;99.90;;;;;;5032182;28;20598;-74
2021/03/19 05:13:43;;;;;;;35.00;23.60;;;3.20;99.90;;;;;;5031907;28;20895;-75
2021/03/19 05:16:09;;;;;;;36.87;22.70;;;3.20;99.90;;;;;;5031800;28;20507;-74
2021/03/19 05:18:35;;;;;;;40.70;24.63;;;3.20;99.90;;;;;;5032104;28;20830;-75
2021/03/19 05:21:01;;;;;;;37.93;25.73;;;3.10;99.90;;;;;;5031061;28;20435;-75
2021/03/19 05:23:32;;;;;;;40.03;24.77;;;3.10;99.90;;;;;;5023444;28;20183;-75
2021/03/19 05:25:59;;;;;;;35.40;23.00;;;3.20;99.90;;;;;;5031315;28;20425;-75
2021/03/19 05:28:25;;;;;;;38.97;25.40;;;3.30;99.90;;;;;;5031585;28;20432;-75
2021/03/19 05:30:53;;;;;;;32.50;23.27;;;3.30;99.90;;;;;;5031296;28;20490;-75
2021/03/19 05:33:21;;;;;;;32.93;23.23;;;3.30;99.90;;;;;;5031351;28;20474;-75
2021/03/19 05:35:46;;;;;;;37.80;25.10;;;3.30;99.90;;;;;;5031209;28;20458;-75
2021/03/19 05:38:12;;;;;;;41.17;23.63;;;3.10;99.90;;;;;;5034543;28;20440;-75
2021/03/19 05:40:43;;;;;;;37.27;23.27;;;2.90;99.90;;;;;;5034606;28;20197;-75
2021/03/19 05:43:29;;;;;;;36.10;22.17;;;2.90;99.90;;;;;;5034935;28;20189;-75
2021/03/19 05:46:01;;;;;;;39.13;23.40;;;2.90;99.90;;;;;;5030872;28;20505;-75
2021/03/19 05:48:41;;;;;;;34.67;23.77;;;2.90;99.90;;;;;;5033685;28;20439;-75
2021/03/19 05:51:24;;;;;;;34.60;22.47;;;2.90;99.90;;;;;;5015241;28;20898;-75
2021/03/19 05:53:55;;;;;;;39.30;23.17;;;2.80;99.90;;;;;;5034062;28;20486;-76
2021/03/19 05:56:24;;;;;;;40.87;24.90;;;2.80;99.90;;;;;;5040856;28;20444;-76
2021/03/19 05:58:50;;;;;;;36.87;24.43;;;2.80;99.90;;;;;;5036264;28;20438;-75
2021/03/19 06:01:15;;;;;;;37.07;23.17;;;2.80;99.90;;;;;;5034482;28;20482;-74
2021/03/19 06:03:42;;;;;;;37.20;24.37;;;2.80;99.90;;;;;;5034677;28;20319;-75
2021/03/19 06:06:09;;;;;;;39.97;25.37;;;2.90;99.90;;;;;;5034895;28;20602;-75
2021/03/19 06:08:47;;;;;;;47.33;26.60;;;3.00;99.90;;;;;;5034206;28;20536;-75
2021/03/19 06:11:17;;;;;;;39.53;26.00;;;3.00;99.90;;;;;;5034600;28;20954;-75
2021/03/19 06:13:57;;;;;;;42.53;27.90;;;3.10;99.90;;;;;;5034847;28;20446;-75
2021/03/19 06:16:31;;;;;;;45.23;26.20;;;3.20;99.90;;;;;;5034274;28;20419;-75
2021/03/19 06:18:59;;;;;;;42.03;28.20;;;3.20;99.90;;;;;;5033510;28;20948;-75
2021/03/19 06:21:32;;;;;;;35.70;25.57;;;3.20;99.90;;;;;;5034430;28;20913;-75
2021/03/19 06:24:24;;;;;;;39.63;25.90;;;3.20;99.90;;;;;;5034100;28;20432;-75
2021/03/19 06:26:53;;;;;;;39.50;25.97;;;3.30;99.90;;;;;;5034503;28;20490;-75
2021/03/19 06:29:21;;;;;;;36.07;25.67;;;3.30;99.90;;;;;;5049019;28;20456;-75
2021/03/19 06:32:13;;;;;;;44.83;26.40;;;3.40;99.90;;;;;;5034346;28;20417;-75
2021/03/19 06:35:02;;;;;;;33.50;21.97;;;3.40;99.90;;;;;;5013292;28;20449;-75
2021/03/19 06:37:35;;;;;;;33.27;22.10;;;3.30;99.90;;;;;;5018689;28;20441;-75
2021/03/19 06:40:37;;;;;;;35.47;24.00;;;3.30;99.90;;;;;;5032375;28;20432;-75
2021/03/19 06:43:22;;;;;;;32.80;21.97;;;3.40;99.90;;;;;;5033698;28;20429;-75
2021/03/19 06:45:50;;;;;;;27.00;20.13;;;3.40;99.90;;;;;;5033901;28;20425;-75
2021/03/19 06:48:30;;;;;;;31.80;21.33;;;3.40;99.90;;;;;;5033569;28;20479;-75
2021/03/19 06:50:55;;;;;;;30.40;20.93;;;3.50;99.90;;;;;;5033293;28;20468;-75
2021/03/19 06:53:31;;;;;;;27.60;19.47;;;3.60;99.90;;;;;;5033838;28;20907;-75
2021/03/19 06:56:14;;;;;;;24.60;18.53;;;3.70;99.90;;;;;;5033913;28;20268;-75
2021/03/19 06:58:47;;;;;;;31.27;20.10;;;3.60;99.90;;;;;;5033468;28;20494;-75
2021/03/19 07:01:29;;;;;;;35.97;19.77;;;3.70;99.90;;;;;;5052394;28;20502;-75
2021/03/19 07:04:22;;;;;;;27.97;18.90;;;3.90;99.90;;;;;;5036737;28;20476;-75
2021/03/19 07:07:04;;;;;;;27.93;18.30;;;4.00;99.90;;;;;;5033581;28;20408;-75
2021/03/19 07:09:58;;;;;;;29.37;20.00;;;4.00;99.90;;;;;;5033308;28;20504;-75
2021/03/19 07:12:57;;;;;;;24.90;17.57;;;4.10;99.90;;;;;;5033321;28;20890;-75
2021/03/19 07:15:47;;;;;;;26.80;17.90;;;4.20;99.90;;;;;;5033588;28;20464;-75
2021/03/19 07:18:22;;;;;;;28.00;18.40;;;4.20;99.90;;;;;;5033450;28;20425;-75
2021/03/19 07:21:05;;;;;;;26.70;18.23;;;4.30;99.90;;;;;;5032748;28;20456;-75
2021/03/19 07:23:52;;;;;;;26.83;17.50;;;4.30;99.90;;;;;;5032514;28;20937;-75
2021/03/19 07:26:22;;;;;;;26.60;18.20;;;4.40;99.90;;;;;;5032224;28;20425;-75
2021/03/19 07:29:16;;;;;;;26.33;18.10;;;4.50;99.90;;;;;;5033058;28;21042;-75
2021/03/19 07:31:53;;;;;;;19.85;14.70;;;5.10;99.90;;;;;;5033622;28;20422;-75
2021/03/19 07:34:42;;;;;;;21.10;16.73;;;6.00;99.90;;;;;;5033109;28;20506;-75
2021/03/19 07:37:23;;;;;;;22.77;13.43;;;6.70;99.90;;;;;;5033520;28;20468;-75
2021/03/19 07:40:27;;;;;;;19.43;13.80;;;7.10;99.90;;;;;;5032565;28;20413;-75
2021/03/19 07:43:02;;;;;;;18.83;12.97;;;7.70;99.90;;;;;;5020495;28;20552;-75
2021/03/19 07:45:41;;;;;;;22.20;13.37;;;8.30;99.90;;;;;;5029997;28;20504;-75
2021/03/19 07:48:54;;;;;;;18.33;13.67;;;8.80;99.90;;;;;;5023240;28;20538;-75
2021/03/19 07:51:24;;;;;;;22.43;17.10;;;9.10;99.90;;;;;;5016055;28;20927;-75
2021/03/19 07:53:59;;;;;;;28.33;19.77;;;9.70;99.90;;;;;;5031725;28;20889;-75
2021/03/19 07:56:49;;;;;;;22.10;16.93;;;9.70;99.90;;;;;;5031558;28;20527;-75
2021/03/19 07:59:20;;;;;;;18.00;16.10;;;10.20;99.90;;;;;;5033978;28;20445;-74
2021/03/19 08:01:53;;;;;;;22.37;17.33;;;9.80;99.90;;;;;;5032890;28;20440;-75
2021/03/19 08:04:52;;;;;;;22.83;17.37;;;10.40;99.90;;;;;;5036694;28;20956;-75
2021/03/19 08:07:42;;;;;;;18.60;15.40;;;11.00;99.90;;;;;;5039864;28;20430;-75
2021/03/19 08:10:33;;;;;;;22.20;16.87;;;11.40;99.90;;;;;;5035504;28;20424;-75
2021/03/19 08:13:17;;;;;;;21.37;16.37;;;12.10;99.90;;;;;;5042082;28;20480;-75
2021/03/19 08:15:50;;;;;;;18.40;14.50;;;12.60;99.90;;;;;;5038176;28;20806;-75
2021/03/19 08:18:30;;;;;;;23.57;14.77;;;13.10;99.90;;;;;;5048065;28;20522;-75
2021/03/19 08:21:11;;;;;;;15.60;12.70;;;12.80;99.90;;;;;;5052600;28;20409;-76
2021/03/19 08:23:48;;;;;;;13.73;12.33;;;13.10;99.90;;;;;;5051434;28;20414;-75
2021/03/19 08:26:47;;;;;;;14.50;11.37;;;13.50;99.90;;;;;;5044419;28;20512;-75
2021/03/19 08:29:28;;;;;;;13.23;11.20;;;13.60;99.90;;;;;;5047902;28;20464;-75
2021/03/19 08:32:23;;;;;;;11.80;10.60;;;14.60;99.90;;;;;;5051407;28;20433;-75
2021/03/19 08:34:48;;;;;;;24.23;16.87;;;14.60;99.90;;;;;;5045887;28;20810;-75
2021/03/19 08:38:02;;;;;;;14.10;11.63;;;14.40;97.80;;;;;;5040354;28;20460;-75
2021/03/19 08:40:34;;;;;;;13.20;10.83;;;14.20;98.20;;;;;;5032118;28;20271;-77
2021/03/19 08:43:03;;;;;;;12.13;9.97;;;14.60;96.80;;;;;;5030415;28;20421;-77
2021/03/19 08:45:31;;;;;;;10.73;8.60;;;14.20;92.60;;;;;;5032366;28;20995;-77
2021/03/19 08:48:01;;;;;;;10.10;9.00;;;14.00;93.10;;;;;;5041311;28;20504;-77
2021/03/19 08:50:38;;;;;;;10.67;9.67;;;13.60;90.30;;;;;;5038041;28;20429;-77
2021/03/19 08:53:32;;;;;;;9.67;8.77;;;13.60;91.30;;;;;;5040294;28;20464;-77
2021/03/19 08:56:04;;;;;;;13.23;10.83;;;13.70;93.10;;;;;;5050019;28;20437;-77
2021/03/19 08:58:29;;;;;;;13.97;11.00;;;13.20;92.50;;;;;;5063177;28;20442;-79
2021/03/19 09:01:03;;;;;;;11.63;9.43;;;13.50;94.00;;;;;;5050903;28;20498;-78
2021/03/19 09:03:38;;;;;;;11.63;9.27;;;13.70;92.40;;;;;;5044497;28;20686;-77
2021/03/19 09:06:04;;;;;;;11.67;8.57;;;14.20;90.80;;;;;;5041068;28;20817;-78
2021/03/19 09:08:49;;;;;;;7.90;7.10;;;13.90;88.80;;;;;;5040562;28;20464;-78
2021/03/19 09:11:24;;;;;;;8.57;7.67;;;14.00;89.00;;;;;;5055848;28;20655;-78
2021/03/19 09:14:04;;;;;;;8.37;7.63;;;13.90;85.00;;;;;;5058540;28;20455;-77
2021/03/19 09:16:45;;;;;;;14.70;12.67;;;13.70;85.20;;;;;;5043967;28;20467;-76
2021/03/19 09:19:31;;;;;;;9.43;6.87;;;13.80;87.30;;;;;;5038328;28;20450;-78
2021/03/19 09:22:28;;;;;;;7.97;7.17;;;14.30;86.10;;;;;;5044718;28;20421;-76
2021/03/19 09:25:11;;;;;;;7.90;7.07;;;13.80;82.90;;;;;;5049086;28;20457;-76
2021/03/19 09:27:38;;;;;;;8.70;7.53;;;13.70;82.60;;;;;;5053566;28;20437;-76
2021/03/19 09:30:22;;;;;;;7.30;6.60;;;13.80;82.60;;;;;;5055244;28;20420;-76
2021/03/19 09:32:58;;;;;;;8.40;6.53;;;13.80;85.50;;;;;;5055437;28;20547;-76
2021/03/19 09:35:44;;;;;;;7.37;6.70;;;14.00;84.10;;;;;;5050349;28;20420;-76
2021/03/19 09:38:24;;;;;;;9.67;7.23;;;14.00;84.70;;;;;;5054097;28;20417;-77
2021/03/19 09:41:04;;;;;;;8.47;6.93;;;13.80;86.60;;;;;;5053862;28;20471;-76
2021/03/19 09:43:42;;;;;;;6.60;5.90;;;13.80;82.30;;;;;;5051537;28;20941;-77
2021/03/19 09:46:28;;;;;;;6.97;6.37;;;13.90;97.20;;;;;;5054469;28;20430;-76
2021/03/19 09:49:07;;;;;;;7.00;6.00;;;14.00;90.20;;;;;;5052814;28;20420;-77
2021/03/19 09:51:41;;;;;;;6.83;6.13;;;13.60;88.10;;;;;;5034605;28;20438;-76
2021/03/19 09:54:25;;;;;;;7.57;6.53;;;14.10;90.10;;;;;;5034567;28;20446;-76
2021/03/19 09:56:54;;;;;;;7.30;6.60;;;14.80;90.80;;;;;;5023897;28;20426;-75
2021/03/19 09:59:26;;;;;;;5.30;4.80;;;15.10;88.70;;;;;;5034325;28;20438;-75
2021/03/19 10:01:52;;;;;;;13.57;5.90;;;14.90;77.30;;;;;;5034961;28;20413;-75
2021/03/19 10:04:34;;;;;;;4.90;4.50;;;15.00;75.50;;;;;;5034829;28;20504;-75
2021/03/19 10:07:04;;;;;;;6.70;4.77;;;14.50;73.40;;;;;;5033223;28;20452;-75
2021/03/19 10:09:44;;;;;;;3.57;3.27;;;14.10;72.80;;;;;;5043778;28;20429;-75
2021/03/19 10:12:17;;;;;;;4.97;3.77;;;13.80;74.90;;;;;;5047222;28;20537;-76
2021/03/19 10:14:47;;;;;;;4.47;4.07;;;14.80;78.30;;;;;;5036517;28;20508;-75
2021/03/19 10:17:24;;;;;;;5.17;4.33;;;15.20;75.20;;;;;;5035981;28;20587;-76
2021/03/19 10:19:57;;;;;;;8.30;4.50;;;15.40;72.40;;;;;;5035544;28;20505;-75
2021/03/19 10:22:55;;;;;;;6.20;4.27;;;15.50;71.20;;;;;;5032993;28;20809;-76
2021/03/19 10:25:25;;;;;;;5.43;4.23;;;15.20;71.10;;;;;;5034154;28;20911;-76
2021/03/19 10:27:53;;;;;;;5.67;3.90;;;15.00;71.60;;;;;;5032048;28;20966;-75
2021/03/19 10:30:26;;;;;;;4.30;3.90;;;14.50;69.30;;;;;;5050135;28;20429;-76
2021/03/19 10:32:55;;;;;;;6.60;4.50;;;14.40;72.40;;;;;;5053050;28;20465;-76
2021/03/19 10:35:30;;;;;;;5.63;4.17;;;15.00;75.10;;;;;;5049962;28;20434;-75
2021/03/19 10:38:28;;;;;;;4.40;3.77;;;14.30;71.00;;;;;;5046209;28;20813;-75
2021/03/19 10:41:07;;;;;;;6.47;3.50;;;14.70;73.00;;;;;;5039709;28;20496;-76
2021/03/19 10:43:47;;;;;;;7.17;3.73;;;14.10;64.10;;;;;;5050630;28;20463;-76
2021/03/19 10:46:26;;;;;;;3.80;3.20;;;13.30;66.90;;;;;;5051359;28;20441;-76
2021/03/19 10:49:00;;;;;;;2.50;2.30;;;13.60;67.80;;;;;;5052086;28;20602;-76
2021/03/19 10:52:01;;;;;;;3.43;2.70;;;12.80;73.30;;;;;;5053870;28;20409;-76
2021/03/19 10:54:33;;;;;;;6.20;2.57;;;13.00;67.10;;;;;;5052711;28;20436;-76
2021/03/19 10:57:21;;;;;;;3.40;3.10;;;13.50;69.20;;;;;;5050633;28;20428;-76
2021/03/19 10:59:49;;;;;;;10.23;3.73;;;13.90;71.80;;;;;;5051217;28;20432;-76
2021/03/19 11:02:28;;;;;;;24.13;15.90;;;14.00;64.60;;;;;;5048921;28;20421;-75
2021/03/19 11:04:59;;;;;;;6.90;5.43;;;13.40;65.40;;;;;;5052784;28;20452;-77
2021/03/19 11:07:25;;;;;;;12.80;9.80;;;14.00;66.30;;;;;;5053642;28;20417;-76
2021/03/19 11:10:09;;;;;;;3.07;2.77;;;13.70;64.30;;;;;;5051182;28;20429;-76
2021/03/19 11:12:43;;;;;;;6.90;5.00;;;13.40;68.30;;;;;;5037748;28;20898;-76
2021/03/19 11:15:14;;;;;;;3.73;3.43;;;13.30;64.10;;;;;;5052695;28;20429;-76
2021/03/19 11:17:40;;;;;;;4.77;2.87;;;13.70;64.80;;;;;;5048926;28;20433;-76
2021/03/19 11:20:22;;;;;;;3.37;2.67;;;14.10;65.00;;;;;;5053183;28;20408;-77
2021/03/19 11:22:48;;;;;;;4.30;3.23;;;14.10;65.20;;;;;;5049528;28;20171;-76
2021/03/19 11:25:23;;;;;;;4.27;2.80;;;13.80;64.70;;;;;;5032159;28;20457;-76
2021/03/19 11:27:50;;;;;;;6.10;3.70;;;14.00;67.50;;;;;;5040078;28;20459;-76
2021/03/19 11:30:34;;;;;;;3.57;3.27;;;13.80;64.50;;;;;;5050397;28;20430;-76
2021/03/19 11:33:06;;;;;;;2.90;2.60;;;14.00;63.20;;;;;;5050702;28;20507;-75
2021/03/19 11:35:32;;;;;;;2.87;2.10;;;13.20;62.60;;;;;;5053213;28;20433;-76
2021/03/19 11:37:58;;;;;;;2.50;2.30;;;13.40;62.80;;;;;;5033156;28;20481;-76
2021/03/19 11:40:23;;;;;;;2.43;2.10;;;13.30;64.10;;;;;;5047710;28;20218;-76
2021/03/19 11:42:54;;;;;;;3.50;2.50;;;13.20;62.70;;;;;;5033759;28;20237;-76
2021/03/19 11:45:26;;;;;;;4.70;3.27;;;13.20;63.00;;;;;;5032748;28;20858;-76
2021/03/19 11:47:57;;;;;;;2.20;2.00;;;13.20;61.30;;;;;;5052921;28;20464;-76
2021/03/19 11:50:24;;;;;;;2.73;2.30;;;12.30;61.70;;;;;;5052673;28;20412;-75
2021/03/19 11:52:56;;;;;;;4.37;2.33;;;12.60;63.00;;;;;;5047315;28;20542;-76
2021/03/19 11:55:25;;;;;;;3.80;2.60;;;12.80;64.10;;;;;;5042216;28;20449;-76
2021/03/19 11:57:52;;;;;;;3.73;2.40;;;13.00;64.30;;;;;;5047249;28;20445;-76
2021/03/19 12:00:38;;;;;;;2.63;1.83;;;13.30;62.60;;;;;;5025807;28;20425;-76
2021/03/19 12:03:10;;;;;;;2.57;2.37;;;14.00;61.00;;;;;;5038430;28;20770;-76
2021/03/19 12:05:36;;;;;;;6.10;2.70;;;14.20;60.70;;;;;;5031653;28;20445;-76
2021/03/19 12:08:03;;;;;;;2.27;2.07;;;14.40;59.30;;;;;;5043157;28;20445;-77
2021/03/19 12:10:29;;;;;;;2.50;2.20;;;14.20;58.70;;;;;;5047891;28;20448;-76
2021/03/19 12:12:59;;;;;;;3.70;2.83;;;14.30;58.60;;;;;;5051101;28;20449;-76
2021/03/19 12:15:26;;;;;;;2.13;1.80;;;14.20;56.90;;;;;;5050454;28;20433;-76
2021/03/19 12:17:52;;;;;;;2.60;1.87;;;14.60;62.10;;;;;;5035266;28;20826;-76
2021/03/19 12:20:17;;;;;;;2.80;2.60;;;15.10;63.40;;;;;;5052177;28;20409;-76
2021/03/19 12:22:44;;;;;;;2.43;2.23;;;15.30;59.80;;;;;;5051309;28;20252;-76
2021/03/19 12:25:21;;;;;;;2.73;2.53;;;15.60;61.80;;;;;;5052228;28;20197;-77
2021/03/19 12:27:47;;;;;;;4.07;2.67;;;15.80;59.30;;;;;;5049597;28;20476;-76
2021/03/19 12:30:13;;;;;;;2.20;1.83;;;16.40;60.00;;;;;;5031325;28;20426;-76
2021/03/19 12:32:39;;;;;;;3.00;1.70;;;16.50;57.90;;;;;;5042144;28;20186;-76
2021/03/19 12:35:05;;;;;;;3.27;2.77;;;16.80;59.20;;;;;;5052180;28;20409;-77
2021/03/19 12:37:31;;;;;;;2.27;2.03;;;15.90;54.90;;;;;;5046954;28;20589;-76
2021/03/19 12:39:57;;;;;;;8.03;2.23;;;16.10;56.10;;;;;;5049188;28;20516;-76
2021/03/19 12:42:22;;;;;;;2.43;1.83;;;15.50;54.80;;;;;;5042950;28;20609;-76
2021/03/19 12:44:48;;;;;;;2.47;2.23;;;14.40;53.20;;;;;;5044323;28;20186;-75
2021/03/19 12:47:13;;;;;;;5.57;3.80;;;13.80;56.30;;;;;;5046592;28;20222;-75
2021/03/19 12:49:39;;;;;;;5.57;2.97;;;13.50;54.60;;;;;;5049421;28;20227;-76
2021/03/19 12:52:05;;;;;;;4.93;2.80;;;13.30;55.80;;;;;;5050421;28;20255;-76
2021/03/19 12:54:30;;;;;;;1.60;1.50;;;13.30;56.80;;;;;;5051784;28;20163;-76
2021/03/19 12:56:56;;;;;;;2.20;2.00;;;13.50;58.80;;;;;;5050280;28;20342;-76
2021/03/19 12:59:21;;;;;;;2.77;1.80;;;13.70;57.00;;;;;;5046863;28;20191;-76
2021/03/19 13:01:47;;;;;;;3.97;1.60;;;13.60;55.60;;;;;;5046777;28;20176;-76
2021/03/19 13:04:12;;;;;;;1.97;1.70;;;13.40;58.10;;;;;;5030544;28;20671;-77
2021/03/19 13:06:38;;;;;;;3.60;1.93;;;13.60;57.70;;;;;;5044864;28;20730;-76
2021/03/19 13:09:04;;;;;;;3.60;2.10;;;13.90;58.70;;;;;;5050178;28;20194;-77
2021/03/19 13:11:29;;;;;;;3.90;2.60;;;14.20;56.70;;;;;;5029899;28;20187;-76